Time;durP1;ratioP1;P1;durP2;ratioP2;P2;SDS_P1;SDS_P2;PMS_P1;PMS_P2;Temp;Humidity;BMP_temperature;BMP_pressure;BME280_temperature;BME280_humidity;BME280_pressure;Samples;Min_cycle;Max_cycle;Signal;HPM_P1;HPM_P2
2022/10/27 00:01:16;;;;;;;11.02;4.07;;;12.50;99.90;;;;;;5036959;28;20102;-75
2022/10/27 00:03:48;;;;;;;14.10;5.10;;;12.40;99.90;;;;;;5038270;28;20447;-75
2022/10/27 00:06:14;;;;;;;14.30;4.60;;;12.50;99.90;;;;;;5037833;28;20037;-75
2022/10/27 00:08:39;;;;;;;22.58;5.25;;;12.50;99.90;;;;;;5041121;28;20110;-73
2022/10/27 00:11:06;;;;;;;17.05;4.93;;;12.50;99.90;;;;;;5036112;28;20045;-74
2022/10/27 00:13:32;;;;;;;14.80;4.45;;;12.50;99.90;;;;;;5038084;28;20046;-74
2022/10/27 00:15:59;;;;;;;15.48;5.50;;;12.40;99.90;;;;;;5037797;28;20048;-75
2022/10/27 00:18:25;;;;;;;15.98;4.80;;;12.40;99.90;;;;;;5037778;28;20034;-74
2022/10/27 00:21:04;;;;;;;16.70;5.57;;;12.40;99.90;;;;;;5035987;28;20328;-74
2022/10/27 00:23:30;;;;;;;13.73;5.20;;;12.40;99.90;;;;;;5038448;28;20041;-74
2022/10/27 00:25:57;;;;;;;17.52;5.50;;;12.40;99.90;;;;;;5037474;28;20428;-74
2022/10/27 00:28:23;;;;;;;15.00;4.80;;;12.30;99.90;;;;;;5035036;28;20256;-75
2022/10/27 00:31:04;;;;;;;15.75;6.00;;;12.30;99.90;;;;;;5032549;28;20047;-75
2022/10/27 00:33:30;;;;;;;19.60;5.57;;;12.30;99.90;;;;;;5037189;28;20228;-74
2022/10/27 00:36:01;;;;;;;18.95;5.88;;;12.30;99.90;;;;;;5037135;28;20080;-75
2022/10/27 00:38:27;;;;;;;13.77;4.97;;;12.30;99.90;;;;;;5037623;28;20079;-72
2022/10/27 00:40:52;;;;;;;16.60;6.07;;;12.30;99.90;;;;;;5038499;28;20049;-73
2022/10/27 00:43:31;;;;;;;18.83;7.00;;;12.30;99.90;;;;;;5038530;28;20516;-74
2022/10/27 00:46:30;;;;;;;19.17;6.72;;;12.20;99.90;;;;;;5040378;28;20674;-74
2022/10/27 00:49:02;;;;;;;21.45;7.07;;;12.20;99.90;;;;;;5034638;28;20061;-75
2022/10/27 00:51:28;;;;;;;19.17;7.00;;;12.30;99.90;;;;;;5030859;28;20056;-73
2022/10/27 00:53:54;;;;;;;21.30;8.02;;;12.20;99.90;;;;;;5039030;28;20071;-74
2022/10/27 00:56:22;;;;;;;21.55;8.38;;;12.20;99.90;;;;;;5039506;28;20039;-74
2022/10/27 00:58:48;;;;;;;24.77;9.55;;;12.20;99.90;;;;;;5037483;28;20049;-75
2022/10/27 01:01:14;;;;;;;18.02;8.50;;;12.10;99.90;;;;;;5038850;28;20033;-74
2022/10/27 01:03:40;;;;;;;22.27;9.20;;;12.10;99.90;;;;;;5040088;28;20044;-74
2022/10/27 01:06:08;;;;;;;23.23;10.35;;;12.10;99.90;;;;;;5045398;28;20148;-74
2022/10/27 01:08:34;;;;;;;28.00;11.40;;;12.10;99.90;;;;;;5037769;28;20060;-74
2022/10/27 01:11:00;;;;;;;24.60;11.05;;;12.20;99.90;;;;;;5038693;28;20044;-75
2022/10/27 01:13:26;;;;;;;23.55;10.93;;;12.10;99.90;;;;;;5042788;28;20041;-74
2022/10/27 01:16:32;;;;;;;25.17;11.02;;;12.10;99.90;;;;;;5041948;28;20090;-74
2022/10/27 01:19:40;;;;;;;27.50;11.02;;;12.20;99.90;;;;;;5037876;28;20045;-74
2022/10/27 01:22:28;;;;;;;23.23;10.93;;;12.20;99.90;;;;;;5044190;28;20052;-74
2022/10/27 01:25:15;;;;;;;25.13;11.88;;;12.20;99.90;;;;;;5043867;28;20102;-73
2022/10/27 01:28:13;;;;;;;28.15;12.10;;;12.20;99.90;;;;;;5040466;28;20044;-74
2022/10/27 01:31:11;;;;;;;26.92;12.23;;;12.20;99.90;;;;;;5034365;28;20412;-73
2022/10/27 01:34:10;;;;;;;27.30;12.05;;;12.20;99.90;;;;;;4987001;28;20454;-74
2022/10/27 01:36:40;;;;;;;25.38;12.25;;;12.30;99.90;;;;;;5041121;28;20041;-74
2022/10/27 01:39:29;;;;;;;25.13;12.30;;;12.30;99.90;;;;;;5035253;28;20044;-73
2022/10/27 01:42:08;;;;;;;28.23;12.30;;;12.30;99.90;;;;;;5043148;28;20037;-74
2022/10/27 01:44:43;;;;;;;28.95;12.82;;;12.30;99.90;;;;;;5041933;28;20045;-74
2022/10/27 01:47:11;;;;;;;20.42;12.02;;;12.20;99.90;;;;;;5040634;28;20037;-73
2022/10/27 01:49:39;;;;;;;27.08;13.25;;;12.20;99.90;;;;;;5040307;28;20052;-73
2022/10/27 01:52:07;;;;;;;25.58;13.50;;;12.20;99.90;;;;;;5043783;28;20648;-74
2022/10/27 01:54:34;;;;;;;23.63;11.25;;;12.20;99.90;;;;;;5038903;28;20044;-74
2022/10/27 01:57:06;;;;;;;27.35;12.75;;;12.10;99.90;;;;;;5042219;28;20053;-73
2022/10/27 01:59:43;;;;;;;25.40;12.77;;;12.20;99.90;;;;;;5041498;28;20040;-73
2022/10/27 02:02:12;;;;;;;24.98;12.95;;;12.20;99.90;;;;;;5039452;28;20174;-74
2022/10/27 02:04:43;;;;;;;30.65;13.77;;;12.30;99.90;;;;;;5037847;28;20052;-74
2022/10/27 02:07:31;;;;;;;23.30;13.73;;;12.30;99.90;;;;;;5042423;28;20053;-74
2022/10/27 02:10:22;;;;;;;26.17;14.70;;;12.40;99.90;;;;;;5041867;28;20040;-74
2022/10/27 02:12:49;;;;;;;32.22;15.98;;;12.50;99.90;;;;;;5038990;28;20502;-74
2022/10/27 02:15:36;;;;;;;24.48;16.25;;;12.50;99.90;;;;;;5038056;28;20037;-73
2022/10/27 02:18:07;;;;;;;28.25;16.40;;;12.60;99.90;;;;;;5037524;28;20053;-73
2022/10/27 02:20:38;;;;;;;27.48;15.98;;;12.70;99.90;;;;;;5043503;28;20123;-73
2022/10/27 02:23:07;;;;;;;28.23;15.15;;;12.60;99.90;;;;;;5044339;28;20084;-73
2022/10/27 02:25:44;;;;;;;27.75;16.27;;;12.60;99.90;;;;;;5043501;28;20223;-73
2022/10/27 02:28:14;;;;;;;31.20;16.88;;;12.60;99.90;;;;;;5040667;28;20485;-74
2022/10/27 02:30:41;;;;;;;23.33;14.88;;;12.60;99.90;;;;;;5039247;28;20147;-74
2022/10/27 02:33:08;;;;;;;33.00;16.20;;;12.60;99.90;;;;;;5036352;28;20045;-74
2022/10/27 02:35:34;;;;;;;31.75;16.85;;;12.60;99.90;;;;;;5042679;28;20106;-73
2022/10/27 02:37:59;;;;;;;26.02;15.15;;;12.70;99.90;;;;;;5039869;28;20091;-73
2022/10/27 02:40:25;;;;;;;33.83;17.42;;;12.70;99.90;;;;;;5039032;28;20044;-74
2022/10/27 02:42:51;;;;;;;30.90;16.13;;;12.70;99.90;;;;;;5041894;28;20187;-74
2022/10/27 02:45:16;;;;;;;29.33;17.02;;;12.70;99.90;;;;;;5037543;28;20072;-73
2022/10/27 02:47:45;;;;;;;34.28;17.02;;;12.70;99.90;;;;;;5042279;28;20041;-74
2022/10/27 02:50:14;;;;;;;31.48;16.65;;;12.70;99.90;;;;;;5041120;28;20080;-73
2022/10/27 02:52:43;;;;;;;25.42;17.42;;;12.80;99.90;;;;;;5040628;28;20064;-73
2022/10/27 02:55:09;;;;;;;26.63;15.63;;;12.80;99.90;;;;;;5039468;28;20046;-72
2022/10/27 02:57:35;;;;;;;29.98;16.35;;;12.80;99.90;;;;;;5042851;28;20103;-73
2022/10/27 03:00:01;;;;;;;26.67;16.42;;;12.80;99.90;;;;;;5037244;28;20532;-73
2022/10/27 03:02:26;;;;;;;29.55;17.48;;;12.90;99.90;;;;;;5041172;28;20048;-73
2022/10/27 03:04:52;;;;;;;32.30;17.10;;;12.80;99.90;;;;;;5037735;28;20045;-74
2022/10/27 03:07:18;;;;;;;31.95;16.05;;;12.90;99.90;;;;;;5039851;28;20574;-73
2022/10/27 03:09:44;;;;;;;29.27;15.57;;;12.90;99.90;;;;;;5039803;28;20135;-74
2022/10/27 03:12:09;;;;;;;26.25;15.55;;;13.00;99.90;;;;;;5042256;28;20119;-74
2022/10/27 03:14:35;;;;;;;32.67;16.02;;;13.10;99.90;;;;;;5038676;28;20044;-74
2022/10/27 03:17:01;;;;;;;30.13;16.13;;;13.10;99.90;;;;;;5038741;28;20037;-73
2022/10/27 03:19:26;;;;;;;30.05;17.60;;;13.10;99.90;;;;;;5040775;28;20472;-73
2022/10/27 03:21:52;;;;;;;27.33;16.90;;;13.20;99.90;;;;;;5039475;28;20511;-74
2022/10/27 03:24:18;;;;;;;31.48;16.33;;;13.20;99.90;;;;;;5041753;28;20045;-73
2022/10/27 03:26:43;;;;;;;25.23;16.40;;;13.20;99.90;;;;;;5040286;28;20052;-73
2022/10/27 03:29:09;;;;;;;26.38;15.43;;;13.30;99.90;;;;;;5038344;28;20033;-73
2022/10/27 03:31:35;;;;;;;26.48;15.57;;;13.20;99.90;;;;;;5034454;28;20424;-74
2022/10/27 03:34:00;;;;;;;26.30;16.08;;;13.20;99.90;;;;;;5038783;28;20045;-74
2022/10/27 03:36:26;;;;;;;25.33;15.20;;;13.20;99.90;;;;;;5037463;28;20049;-74
2022/10/27 03:38:53;;;;;;;23.85;15.15;;;13.30;99.90;;;;;;5039169;28;20110;-74
2022/10/27 03:41:20;;;;;;;25.38;15.25;;;13.30;99.90;;;;;;5039791;28;20480;-74
2022/10/27 03:43:45;;;;;;;26.88;16.17;;;13.30;99.90;;;;;;5028755;28;20688;-74
2022/10/27 03:46:14;;;;;;;25.58;15.32;;;13.30;99.90;;;;;;5035688;28;20045;-73
2022/10/27 03:48:40;;;;;;;25.75;15.50;;;13.40;99.90;;;;;;5037138;28;20059;-74
2022/10/27 03:51:05;;;;;;;22.40;15.32;;;13.30;99.90;;;;;;5034294;28;20052;-74
2022/10/27 03:53:32;;;;;;;25.92;16.23;;;13.40;99.90;;;;;;5039185;28;20045;-73
2022/10/27 03:55:58;;;;;;;27.50;14.95;;;13.40;99.90;;;;;;5037702;28;20056;-73
2022/10/27 03:58:23;;;;;;;29.38;14.88;;;13.30;99.90;;;;;;5038656;28;20044;-74
2022/10/27 04:00:49;;;;;;;27.35;14.45;;;13.40;99.90;;;;;;5036551;28;20138;-74
2022/10/27 04:03:15;;;;;;;24.88;15.13;;;13.30;99.90;;;;;;5040702;28;20088;-74
2022/10/27 04:05:40;;;;;;;24.45;14.18;;;13.30;99.90;;;;;;5038570;28;20029;-74
2022/10/27 04:08:06;;;;;;;22.30;14.07;;;13.30;99.90;;;;;;5038928;28;20052;-74
2022/10/27 04:10:32;;;;;;;24.08;14.13;;;13.30;99.90;;;;;;5039865;28;20051;-74
2022/10/27 04:12:57;;;;;;;28.40;15.77;;;13.20;99.90;;;;;;5039996;28;20059;-74
2022/10/27 04:15:26;;;;;;;25.73;13.48;;;13.10;99.90;;;;;;5038454;28;20128;-74
2022/10/27 04:17:53;;;;;;;25.75;14.77;;;13.10;99.90;;;;;;5038850;28;21533;-74
2022/10/27 04:20:19;;;;;;;28.88;14.82;;;13.10;99.90;;;;;;5035329;28;20504;-74
2022/10/27 04:22:44;;;;;;;24.60;13.50;;;13.00;99.90;;;;;;5039353;28;20048;-74
2022/10/27 04:25:10;;;;;;;24.67;13.93;;;13.00;99.90;;;;;;5038525;28;20438;-74
2022/10/27 04:27:36;;;;;;;26.13;14.15;;;13.00;99.90;;;;;;5035960;28;20596;-74
2022/10/27 04:30:02;;;;;;;22.90;14.10;;;13.00;99.90;;;;;;5037703;28;20416;-73
2022/10/27 04:32:28;;;;;;;31.00;15.10;;;13.00;99.90;;;;;;5038665;28;20408;-74
2022/10/27 04:34:53;;;;;;;26.13;14.38;;;13.00;99.90;;;;;;5039101;28;20052;-74
2022/10/27 04:37:19;;;;;;;30.25;16.42;;;12.90;99.90;;;;;;5043897;28;20041;-73
2022/10/27 04:39:45;;;;;;;23.08;13.05;;;12.90;99.90;;;;;;5042020;28;20435;-73
2022/10/27 04:42:10;;;;;;;23.58;13.18;;;13.00;99.90;;;;;;5043845;28;20041;-73
2022/10/27 04:44:36;;;;;;;23.30;13.70;;;13.00;99.90;;;;;;5042082;28;20139;-74
2022/10/27 04:47:02;;;;;;;27.77;14.68;;;12.90;99.90;;;;;;5041372;28;20056;-74
2022/10/27 04:49:27;;;;;;;21.50;12.82;;;13.00;99.90;;;;;;5041895;28;20049;-72
2022/10/27 04:51:53;;;;;;;25.60;14.43;;;12.90;99.90;;;;;;5043413;28;20052;-73
2022/10/27 04:54:19;;;;;;;21.90;12.80;;;12.90;99.90;;;;;;5038485;28;20045;-72
2022/10/27 04:56:44;;;;;;;25.13;14.68;;;13.00;99.90;;;;;;5030094;28;20179;-72
2022/10/27 04:59:10;;;;;;;20.85;13.25;;;12.90;99.90;;;;;;5046343;28;20036;-73
2022/10/27 05:01:37;;;;;;;26.00;13.35;;;12.90;99.90;;;;;;5035345;28;20072;-73
2022/10/27 05:04:03;;;;;;;24.70;13.00;;;13.00;99.90;;;;;;5034455;28;20044;-73
2022/10/27 05:06:32;;;;;;;22.35;11.90;;;13.00;99.90;;;;;;5034197;28;20480;-73
2022/10/27 05:09:00;;;;;;;22.35;12.32;;;13.00;99.90;;;;;;5031727;28;21985;-73
2022/10/27 05:11:26;;;;;;;24.17;12.63;;;13.00;99.90;;;;;;5034289;28;20430;-73
2022/10/27 05:13:54;;;;;;;23.27;13.05;;;13.10;99.90;;;;;;5040078;28;20136;-73
2022/10/27 05:16:20;;;;;;;19.85;12.10;;;13.10;99.90;;;;;;5035978;28;20056;-73
2022/10/27 05:18:45;;;;;;;27.80;12.20;;;13.10;99.90;;;;;;5038500;28;20038;-72
2022/10/27 05:21:14;;;;;;;19.35;11.23;;;13.10;99.90;;;;;;5041585;28;20405;-73
2022/10/27 05:23:40;;;;;;;20.63;11.52;;;13.10;99.90;;;;;;5042990;28;20073;-74
2022/10/27 05:26:06;;;;;;;23.60;11.43;;;13.20;99.90;;;;;;5045031;28;20457;-73
2022/10/27 05:28:31;;;;;;;21.40;10.68;;;13.20;99.90;;;;;;5044869;28;20086;-73
2022/10/27 05:30:58;;;;;;;19.45;11.32;;;13.20;99.90;;;;;;5034622;28;20114;-73
2022/10/27 05:33:25;;;;;;;20.35;10.38;;;13.20;99.90;;;;;;5040815;28;20712;-70
2022/10/27 05:35:51;;;;;;;24.50;11.10;;;13.20;99.90;;;;;;5037806;28;20044;-75
2022/10/27 05:38:18;;;;;;;16.48;10.18;;;13.20;99.90;;;;;;5036915;28;20120;-75
2022/10/27 05:40:43;;;;;;;16.88;10.82;;;13.30;99.90;;;;;;5043428;28;20102;-75
2022/10/27 05:43:10;;;;;;;19.17;11.02;;;13.30;99.90;;;;;;5042546;28;20064;-74
2022/10/27 05:45:37;;;;;;;24.27;11.52;;;13.40;99.90;;;;;;5057134;28;20045;-74
2022/10/27 05:48:05;;;;;;;18.83;11.05;;;13.40;99.90;;;;;;5038745;28;20653;-72
2022/10/27 05:50:31;;;;;;;21.35;11.57;;;13.40;99.90;;;;;;5042399;28;20064;-75
2022/10/27 05:52:57;;;;;;;18.70;10.90;;;13.40;99.90;;;;;;5041945;28;20234;-76
2022/10/27 05:55:23;;;;;;;21.85;11.00;;;13.40;99.90;;;;;;5039168;28;20512;-76
2022/10/27 05:57:58;;;;;;;19.15;11.13;;;13.50;99.90;;;;;;5033831;28;20045;-77
2022/10/27 06:00:27;;;;;;;17.63;9.95;;;13.40;99.90;;;;;;5037118;28;20060;-76
2022/10/27 06:02:55;;;;;;;21.20;11.32;;;13.50;99.90;;;;;;5041951;28;20037;-77
2022/10/27 06:05:21;;;;;;;17.77;10.02;;;13.50;99.90;;;;;;5041573;28;20428;-77
2022/10/27 06:07:47;;;;;;;16.90;9.98;;;13.60;99.90;;;;;;5039927;28;20592;-76
2022/10/27 06:10:13;;;;;;;20.35;10.68;;;13.60;99.90;;;;;;5040593;28;20504;-76
2022/10/27 06:12:39;;;;;;;17.88;10.15;;;13.60;99.90;;;;;;5046990;28;20043;-75
2022/10/27 06:15:05;;;;;;;17.52;9.77;;;13.60;99.90;;;;;;5046940;28;20055;-75
2022/10/27 06:17:31;;;;;;;18.10;9.73;;;13.60;99.90;;;;;;5042953;28;20128;-76
2022/10/27 06:19:56;;;;;;;19.38;10.48;;;13.60;99.90;;;;;;5046431;28;20136;-76
2022/10/27 06:22:22;;;;;;;17.63;9.93;;;13.60;99.90;;;;;;5044556;28;20387;-76
2022/10/27 06:24:47;;;;;;;19.05;9.88;;;13.60;99.90;;;;;;5048022;28;20037;-77
2022/10/27 06:27:13;;;;;;;16.45;9.93;;;13.70;99.90;;;;;;5043448;28;20400;-74
2022/10/27 06:29:39;;;;;;;16.52;9.65;;;13.60;99.90;;;;;;5047477;28;20115;-77
2022/10/27 06:32:04;;;;;;;15.88;9.52;;;13.60;99.90;;;;;;5046587;28;20083;-75
2022/10/27 06:34:30;;;;;;;15.18;8.80;;;13.70;99.90;;;;;;5046871;28;20084;-75
2022/10/27 06:36:55;;;;;;;18.20;8.93;;;13.60;99.90;;;;;;5047907;28;20041;-76
2022/10/27 06:39:21;;;;;;;17.30;8.82;;;13.60;99.90;;;;;;5043450;28;20045;-75
2022/10/27 06:41:47;;;;;;;16.52;8.63;;;13.60;99.90;;;;;;5046851;28;20044;-77
2022/10/27 06:44:12;;;;;;;18.15;9.95;;;13.60;99.90;;;;;;5045932;28;20049;-74
2022/10/27 06:46:38;;;;;;;13.27;8.35;;;13.60;99.90;;;;;;5037823;28;20053;-73
2022/10/27 06:49:05;;;;;;;17.58;8.85;;;13.60;99.90;;;;;;5045698;28;20055;-75
2022/10/27 06:51:31;;;;;;;17.38;9.05;;;13.60;99.90;;;;;;5047401;28;20037;-76
2022/10/27 06:53:57;;;;;;;19.67;9.13;;;13.60;99.90;;;;;;5043933;28;20091;-75
2022/10/27 06:56:22;;;;;;;19.23;10.52;;;13.60;99.90;;;;;;5046616;28;20431;-75
2022/10/27 06:58:48;;;;;;;17.75;9.45;;;13.60;99.90;;;;;;5044745;28;20048;-75
2022/10/27 07:01:14;;;;;;;19.60;8.95;;;13.50;99.90;;;;;;5047321;28;20118;-75
2022/10/27 07:03:40;;;;;;;16.17;9.48;;;13.50;99.90;;;;;;5046262;28;20447;-76
2022/10/27 07:06:06;;;;;;;15.40;9.68;;;13.50;99.90;;;;;;5047362;28;20480;-75
2022/10/27 07:08:31;;;;;;;19.67;10.07;;;13.50;99.90;;;;;;5046453;28;20041;-76
2022/10/27 07:10:57;;;;;;;15.40;9.52;;;13.60;99.90;;;;;;5047130;28;20052;-76
2022/10/27 07:13:23;;;;;;;15.90;9.80;;;13.40;99.90;;;;;;5043375;28;20556;-76
2022/10/27 07:15:49;;;;;;;16.67;9.45;;;13.50;99.90;;;;;;5044303;28;20120;-75
2022/10/27 07:18:15;;;;;;;14.43;9.57;;;13.50;99.90;;;;;;5045313;28;21239;-76
2022/10/27 07:20:40;;;;;;;13.95;9.73;;;13.50;99.90;;;;;;5047532;28;20053;-76
2022/10/27 07:23:09;;;;;;;14.20;9.63;;;13.50;99.90;;;;;;5044585;28;20102;-76
2022/10/27 07:25:34;;;;;;;14.65;9.90;;;13.50;99.90;;;;;;5043945;28;20068;-75
2022/10/27 07:28:02;;;;;;;19.75;9.95;;;13.50;99.90;;;;;;5044607;28;20073;-75
2022/10/27 07:30:36;;;;;;;17.30;9.98;;;13.60;99.90;;;;;;5044315;28;20464;-75
2022/10/27 07:33:02;;;;;;;19.80;10.90;;;13.60;99.90;;;;;;5043205;28;20049;-75
2022/10/27 07:35:28;;;;;;;13.75;9.60;;;13.60;99.90;;;;;;5045540;28;20051;-76
2022/10/27 07:37:54;;;;;;;18.70;10.48;;;13.60;99.90;;;;;;5047600;28;20123;-76
2022/10/27 07:40:21;;;;;;;17.50;10.00;;;13.70;99.90;;;;;;5040783;28;20389;-76
2022/10/27 07:42:49;;;;;;;17.50;9.50;;;13.60;99.90;;;;;;5046047;28;20140;-76
2022/10/27 07:45:17;;;;;;;20.42;10.27;;;13.60;99.90;;;;;;5044985;28;20167;-75
2022/10/27 07:47:50;;;;;;;16.40;9.98;;;13.70;99.90;;;;;;5041788;28;20144;-76
2022/10/27 07:50:17;;;;;;;14.63;9.98;;;13.80;99.90;;;;;;5042086;28;20068;-76
2022/10/27 07:52:51;;;;;;;16.25;9.55;;;13.80;99.90;;;;;;5044369;28;20048;-76
2022/10/27 07:55:20;;;;;;;16.10;9.55;;;13.90;99.90;;;;;;5043958;28;20126;-77
2022/10/27 07:57:46;;;;;;;20.17;9.25;;;13.90;99.90;;;;;;5044996;28;20381;-76
2022/10/27 08:00:16;;;;;;;13.32;8.90;;;13.90;99.90;;;;;;5044824;28;20052;-76
2022/10/27 08:02:43;;;;;;;12.48;8.30;;;14.00;99.90;;;;;;5043758;28;20052;-76
2022/10/27 08:05:09;;;;;;;14.52;8.50;;;14.00;99.90;;;;;;5043861;28;20055;-75
2022/10/27 08:07:36;;;;;;;15.55;7.88;;;14.00;99.90;;;;;;5045516;28;20523;-76
2022/10/27 08:10:02;;;;;;;14.73;7.80;;;14.00;99.90;;;;;;5040414;28;20548;-76
2022/10/27 08:12:28;;;;;;;15.95;8.73;;;14.00;99.90;;;;;;5046214;28;20060;-76
2022/10/27 08:14:53;;;;;;;14.50;7.88;;;14.00;99.90;;;;;;5046142;28;20403;-76
2022/10/27 08:17:19;;;;;;;13.18;7.53;;;14.10;99.90;;;;;;5044425;28;20511;-76
2022/10/27 08:19:45;;;;;;;14.75;7.43;;;14.10;99.90;;;;;;5043460;28;20044;-77
2022/10/27 08:22:10;;;;;;;12.05;7.03;;;14.20;99.90;;;;;;5045901;28;20041;-76
2022/10/27 08:24:36;;;;;;;9.45;6.07;;;14.30;99.90;;;;;;5042949;28;20607;-77
2022/10/27 08:27:02;;;;;;;13.30;6.20;;;14.30;99.90;;;;;;5044137;28;20571;-76
2022/10/27 08:29:27;;;;;;;10.75;6.43;;;14.30;99.90;;;;;;5045392;28;20420;-75
2022/10/27 08:31:53;;;;;;;10.55;6.55;;;14.40;99.90;;;;;;5045376;28;20484;-75
2022/10/27 08:34:19;;;;;;;12.82;6.47;;;14.50;99.90;;;;;;5027625;28;20056;-76
2022/10/27 08:36:44;;;;;;;9.20;5.63;;;14.50;99.90;;;;;;5043732;28;20249;-77
2022/10/27 08:39:11;;;;;;;11.93;5.97;;;14.60;99.90;;;;;;5043847;28;20381;-76
2022/10/27 08:41:40;;;;;;;11.80;5.93;;;14.80;99.90;;;;;;5046962;28;20049;-76
2022/10/27 08:44:18;;;;;;;10.88;4.85;;;14.80;99.90;;;;;;5041721;28;20041;-75
2022/10/27 08:46:48;;;;;;;7.95;5.28;;;15.00;99.90;;;;;;5037837;28;20127;-77
2022/10/27 08:49:39;;;;;;;9.52;4.78;;;15.10;99.90;;;;;;5042861;28;20136;-77
2022/10/27 08:52:23;;;;;;;8.20;5.10;;;15.10;99.90;;;;;;5044698;28;20470;-77
2022/10/27 08:54:53;;;;;;;11.52;4.90;;;15.30;99.90;;;;;;5044392;28;20048;-77
2022/10/27 08:57:25;;;;;;;13.32;5.20;;;15.40;99.90;;;;;;5044948;28;20099;-76
2022/10/27 08:59:53;;;;;;;8.05;4.30;;;15.50;99.90;;;;;;5043056;28;20116;-78
2022/10/27 09:02:37;;;;;;;8.68;4.15;;;15.60;99.90;;;;;;5045647;28;20524;-78
2022/10/27 09:05:14;;;;;;;11.18;4.47;;;15.70;99.90;;;;;;5041611;28;20041;-74
2022/10/27 09:07:54;;;;;;;8.40;3.75;;;15.80;99.90;;;;;;5042729;28;20045;-78
2022/10/27 09:10:43;;;;;;;7.95;4.30;;;15.70;99.90;;;;;;5042794;28;20091;-77
2022/10/27 09:13:35;;;;;;;8.63;3.85;;;15.80;99.90;;;;;;5044512;28;20518;-76
2022/10/27 09:16:05;;;;;;;6.45;4.32;;;15.80;99.90;;;;;;5042745;28;20041;-75
2022/10/27 09:18:38;;;;;;;8.35;4.00;;;15.90;99.90;;;;;;5045211;28;20074;-77
2022/10/27 09:21:20;;;;;;;8.30;3.95;;;16.00;99.90;;;;;;5046187;28;20507;-76
2022/10/27 09:24:00;;;;;;;8.38;3.97;;;15.90;99.90;;;;;;5047317;28;20049;-77
2022/10/27 09:26:30;;;;;;;11.07;4.25;;;16.00;99.90;;;;;;5046922;28;20037;-78
2022/10/27 09:29:00;;;;;;;9.70;3.85;;;16.00;99.90;;;;;;5043964;28;20586;-78
2022/10/27 09:31:52;;;;;;;8.32;4.00;;;16.10;99.90;;;;;;5049408;28;20053;-78
2022/10/27 09:34:27;;;;;;;6.70;4.10;;;16.00;99.90;;;;;;5040831;28;20098;-78
2022/10/27 09:36:53;;;;;;;8.38;4.50;;;16.00;99.90;;;;;;5048067;28;20139;-78
2022/10/27 09:39:20;;;;;;;6.80;4.15;;;16.10;99.90;;;;;;5047194;28;20048;-78
2022/10/27 09:41:46;;;;;;;9.43;4.18;;;16.00;99.90;;;;;;5050102;28;20071;-78
2022/10/27 09:44:23;;;;;;;8.07;4.40;;;16.10;99.90;;;;;;5045673;28;20504;-78
2022/10/27 09:46:58;;;;;;;6.35;4.07;;;16.00;99.90;;;;;;5037865;28;20179;-78
2022/10/27 09:49:39;;;;;;;11.73;4.60;;;16.00;99.90;;;;;;5045707;28;20373;-78
2022/10/27 09:52:38;;;;;;;9.27;4.43;;;16.10;99.90;;;;;;5046240;28;20057;-78
2022/10/27 09:55:05;;;;;;;7.90;4.72;;;16.10;99.90;;;;;;5048761;28;20088;-77
2022/10/27 09:57:35;;;;;;;10.68;4.15;;;16.10;99.90;;;;;;5049323;28;20032;-78
2022/10/27 10:00:06;;;;;;;9.65;4.50;;;16.10;99.90;;;;;;5045178;28;20060;-78
2022/10/27 10:02:36;;;;;;;10.05;4.72;;;16.10;99.90;;;;;;5043141;28;20512;-77
2022/10/27 10:05:16;;;;;;;7.50;4.57;;;16.20;99.90;;;;;;5045079;28;20124;-77
2022/10/27 10:07:43;;;;;;;7.20;4.13;;;16.20;99.90;;;;;;5047511;28;20044;-78
2022/10/27 10:10:33;;;;;;;14.18;5.32;;;16.20;99.90;;;;;;5048295;28;20063;-78
2022/10/27 10:13:02;;;;;;;8.23;4.40;;;16.20;99.90;;;;;;5048122;28;20045;-78
2022/10/27 10:15:47;;;;;;;12.43;4.88;;;16.30;99.90;;;;;;5046265;28;20041;-78
2022/10/27 10:18:26;;;;;;;9.60;4.95;;;16.30;99.90;;;;;;5041263;28;20148;-78
2022/10/27 10:24:35;;;;;;;9.88;4.95;;;16.40;99.90;;;;;;5047601;28;20122;-78
2022/10/27 10:27:03;;;;;;;7.47;4.07;;;16.40;99.90;;;;;;5048776;28;20511;-75
2022/10/27 10:29:37;;;;;;;10.82;4.65;;;16.50;99.90;;;;;;5046675;28;20487;-76
2022/10/27 10:32:10;;;;;;;11.80;4.60;;;16.50;99.90;;;;;;5046263;28;20048;-77
2022/10/27 10:34:36;;;;;;;9.18;3.70;;;16.60;99.90;;;;;;5047583;28;20052;-77
2022/10/27 10:37:02;;;;;;;10.82;4.18;;;16.60;99.90;;;;;;5048261;28;20041;-77
2022/10/27 10:39:34;;;;;;;10.77;4.00;;;16.70;99.90;;;;;;5045861;28;20116;-77
2022/10/27 10:42:09;;;;;;;7.38;3.60;;;16.70;99.90;;;;;;5047386;28;20041;-77
2022/10/27 10:44:35;;;;;;;9.82;4.07;;;16.90;99.90;;;;;;5045131;28;20099;-76
2022/10/27 10:47:02;;;;;;;12.13;4.47;;;17.00;99.90;;;;;;5047107;28;20037;-74
2022/10/27 10:49:31;;;;;;;7.85;4.05;;;17.10;99.90;;;;;;5045953;28;20040;-77
2022/10/27 10:51:59;;;;;;;8.13;4.28;;;17.30;99.90;;;;;;5045448;28;20079;-76
2022/10/27 10:54:36;;;;;;;8.25;4.13;;;17.40;99.90;;;;;;5028169;28;20389;-76
2022/10/27 10:57:02;;;;;;;12.52;3.63;;;17.50;99.90;;;;;;5047707;28;20043;-76
2022/10/27 10:59:30;;;;;;;8.50;3.90;;;17.50;99.90;;;;;;5045499;28;20583;-77
2022/10/27 11:02:05;;;;;;;9.52;3.67;;;17.70;99.90;;;;;;5048570;28;20401;-77
2022/10/27 11:04:43;;;;;;;9.73;3.40;;;17.70;99.90;;;;;;5046447;28;20041;-77
2022/10/27 11:07:24;;;;;;;8.32;3.03;;;17.70;99.90;;;;;;5047292;28;20607;-76
2022/10/27 11:09:56;;;;;;;11.00;3.92;;;17.80;99.90;;;;;;5044544;28;20041;-76
2022/10/27 11:12:31;;;;;;;10.10;3.80;;;17.80;99.90;;;;;;5043736;28;20056;-77
2022/10/27 11:15:03;;;;;;;9.25;3.20;;;17.80;99.90;;;;;;5042680;28;20522;-77
2022/10/27 11:17:33;;;;;;;7.47;3.22;;;17.80;99.90;;;;;;5045721;28;20037;-77
2022/10/27 11:19:59;;;;;;;7.95;3.25;;;17.90;99.90;;;;;;5046502;28;20052;-77
2022/10/27 11:22:26;;;;;;;9.70;3.20;;;17.90;99.90;;;;;;5046139;28;20055;-76
2022/10/27 11:24:54;;;;;;;7.15;3.05;;;17.90;99.90;;;;;;5048149;28;20044;-76
2022/10/27 11:28:03;;;;;;;6.05;3.00;;;18.00;99.90;;;;;;5045111;28;20053;-76
2022/10/27 11:30:29;;;;;;;6.75;2.55;;;18.10;99.90;;;;;;5042105;28;20057;-74
2022/10/27 11:33:18;;;;;;;11.88;3.55;;;18.20;99.90;;;;;;5041611;28;20143;-76
2022/10/27 11:36:06;;;;;;;5.85;2.70;;;18.30;99.90;;;;;;5035091;28;20472;-76
2022/10/27 11:38:48;;;;;;;7.20;2.67;;;18.40;99.90;;;;;;5041211;28;20073;-76
2022/10/27 11:41:44;;;;;;;6.40;2.67;;;18.40;99.90;;;;;;5040694;28;20819;-76
2022/10/27 11:44:35;;;;;;;7.35;2.67;;;18.50;99.90;;;;;;5040264;28;20048;-77
2022/10/27 11:47:17;;;;;;;8.23;2.75;;;18.50;99.90;;;;;;5045995;28;20032;-76
2022/10/27 11:49:57;;;;;;;8.77;2.70;;;18.50;99.90;;;;;;5042057;28;20037;-76
2022/10/27 11:52:29;;;;;;;6.20;2.47;;;18.60;99.90;;;;;;5042708;28;20041;-77
2022/10/27 11:54:58;;;;;;;8.50;2.23;;;18.60;99.90;;;;;;5036138;28;20041;-77
2022/10/27 11:57:39;;;;;;;8.43;2.63;;;18.70;99.90;;;;;;5043071;28;20284;-77
2022/10/27 12:00:20;;;;;;;6.88;2.50;;;18.70;99.90;;;;;;5037016;28;20118;-78
2022/10/27 12:03:13;;;;;;;5.60;2.70;;;18.80;99.90;;;;;;5038304;28;20919;-75
2022/10/27 12:06:01;;;;;;;4.72;2.33;;;18.90;99.90;;;;;;5042368;28;20044;-76
2022/10/27 12:09:13;;;;;;;5.30;2.20;;;19.00;99.90;;;;;;5044343;28;20061;-77
2022/10/27 12:12:15;;;;;;;7.95;2.55;;;18.90;99.90;;;;;;4969602;28;20364;-76
2022/10/27 12:14:55;;;;;;;4.35;2.28;;;18.90;99.90;;;;;;4977569;28;20120;-76
2022/10/27 12:17:49;;;;;;;6.70;2.13;;;18.80;99.90;;;;;;5028229;28;20408;-77
2022/10/27 12:20:21;;;;;;;8.70;2.33;;;18.80;99.90;;;;;;5043059;28;20454;-77
2022/10/27 12:22:59;;;;;;;6.55;2.45;;;18.70;99.90;;;;;;5041801;28;20643;-78
2022/10/27 12:25:42;;;;;;;6.13;2.42;;;18.70;99.90;;;;;;5040444;28;20157;-76
2022/10/27 12:28:14;;;;;;;6.18;2.63;;;18.70;99.90;;;;;;5045168;28;20549;-75
2022/10/27 12:30:44;;;;;;;8.77;2.50;;;18.60;99.90;;;;;;5035943;28;20400;-75
2022/10/27 12:33:38;;;;;;;8.02;2.20;;;18.60;99.90;;;;;;5040281;28;20421;-76
2022/10/27 12:36:20;;;;;;;4.65;1.90;;;18.60;99.90;;;;;;5040800;28;20099;-76
2022/10/27 12:39:28;;;;;;;6.78;2.22;;;18.50;99.90;;;;;;5039931;28;20481;-76
2022/10/27 12:42:35;;;;;;;6.82;2.10;;;18.60;99.90;;;;;;5041432;28;20091;-76
2022/10/27 12:45:19;;;;;;;5.30;2.08;;;18.60;99.90;;;;;;4961446;28;20081;-76
2022/10/27 12:48:30;;;;;;;8.38;2.10;;;18.60;99.90;;;;;;5032234;28;20261;-76
2022/10/27 12:51:02;;;;;;;7.70;2.13;;;18.60;99.90;;;;;;5045615;28;20063;-76
2022/10/27 12:53:42;;;;;;;4.70;1.70;;;18.70;99.90;;;;;;5041823;28;20048;-75
2022/10/27 12:56:23;;;;;;;6.95;2.17;;;18.70;99.90;;;;;;5033674;28;20041;-76
2022/10/27 12:59:07;;;;;;;5.78;2.13;;;18.70;99.90;;;;;;5042828;28;20060;-77
2022/10/27 13:01:40;;;;;;;5.63;1.95;;;18.70;99.90;;;;;;5043212;28;20053;-76